createdAt,value
2023-04-16T00:01:32.585Z,10.52
2023-04-16T00:04:00.820Z,10.52
2023-04-16T00:06:29.148Z,10.53
2023-04-16T00:08:57.517Z,10.52
2023-04-16T00:11:25.840Z,10.62
2023-04-16T00:13:57.755Z,10.57
2023-04-16T00:16:25.749Z,10.57
2023-04-16T00:18:55.119Z,10.55
2023-04-16T00:21:26.730Z,10.66
2023-04-16T00:23:55.004Z,10.63
2023-04-16T00:26:23.015Z,10.60
2023-04-16T00:28:51.569Z,10.59
2023-04-16T00:31:19.552Z,10.66
2023-04-16T00:33:47.572Z,10.60
2023-04-16T00:36:17.151Z,10.64
2023-04-16T00:38:45.392Z,10.67
2023-04-16T00:41:14.050Z,10.63
2023-04-16T00:43:43.285Z,10.68
2023-04-16T00:46:11.549Z,10.63
2023-04-16T00:48:41.591Z,10.64
2023-04-16T00:51:10.614Z,10.72
2023-04-16T00:53:40.161Z,10.61
2023-04-16T00:56:09.023Z,10.63
2023-04-16T00:58:38.502Z,10.60
2023-04-16T01:01:07.404Z,10.57
2023-04-16T01:03:39.847Z,10.57
2023-04-16T01:06:08.675Z,10.58
2023-04-16T01:08:36.858Z,10.58
2023-04-16T01:11:06.532Z,10.58
2023-04-16T01:13:34.794Z,10.61
2023-04-16T01:16:02.767Z,10.64
2023-04-16T01:18:30.969Z,10.62
2023-04-16T01:21:00.913Z,10.65
2023-04-16T01:23:31.486Z,10.67
2023-04-16T01:25:59.735Z,10.68
2023-04-16T01:28:27.737Z,10.65
2023-04-16T01:30:59.772Z,10.67
2023-04-16T01:33:57.768Z,10.84
2023-04-16T01:36:27.652Z,10.85
2023-04-16T01:38:56.502Z,10.84
2023-04-16T01:41:25.206Z,10.91
2023-04-16T01:43:53.406Z,10.78
2023-04-16T01:46:30.351Z,10.69
2023-04-16T01:48:58.898Z,10.72
2023-04-16T01:51:29.165Z,10.70
2023-04-16T01:53:58.326Z,10.72
2023-04-16T01:56:26.442Z,10.69
2023-04-16T01:58:54.888Z,10.72
2023-04-16T02:01:24.896Z,10.71
2023-04-16T02:03:53.752Z,10.67
2023-04-16T02:06:22.641Z,10.69
2023-04-16T02:08:52.266Z,10.79
2023-04-16T02:11:23.132Z,10.71
2023-04-16T02:13:52.124Z,10.75
2023-04-16T02:16:20.629Z,10.74
2023-04-16T02:19:00.504Z,10.65
2023-04-16T02:21:31.902Z,10.65
2023-04-16T02:24:01.496Z,10.83
2023-04-16T02:26:31.740Z,10.75
2023-04-16T02:29:05.464Z,10.70
2023-04-16T02:31:40.784Z,10.78
2023-04-16T02:34:09.755Z,10.74
2023-04-16T02:36:39.992Z,10.74
2023-04-16T02:39:10.066Z,10.78
2023-04-16T02:41:38.630Z,10.97
2023-04-16T02:44:07.129Z,10.85
2023-04-16T02:46:35.024Z,10.90
2023-04-16T02:49:03.151Z,10.79
2023-04-16T02:51:31.098Z,10.73
2023-04-16T02:53:59.220Z,10.74
2023-04-16T02:56:28.634Z,10.97
2023-04-16T02:58:56.594Z,10.88
2023-04-16T03:01:25.324Z,10.77
2023-04-16T03:03:53.603Z,10.85
2023-04-16T03:06:21.626Z,10.77
2023-04-16T03:08:49.612Z,10.89
2023-04-16T03:11:17.740Z,10.75
2023-04-16T03:13:47.104Z,10.67
2023-04-16T03:16:15.525Z,10.59
2023-04-16T03:18:46.093Z,10.58
2023-04-16T03:21:14.018Z,10.59
2023-04-16T03:23:41.988Z,10.66
2023-04-16T03:26:10.605Z,10.56
2023-04-16T03:28:38.635Z,10.60
2023-04-16T03:31:08.005Z,10.70
2023-04-16T03:33:37.064Z,10.66
2023-04-16T03:36:06.432Z,10.48
2023-04-16T03:38:37.105Z,10.35
2023-04-16T03:41:05.265Z,10.37
2023-04-16T03:43:34.700Z,10.34
2023-04-16T03:46:02.687Z,10.34
2023-04-16T03:48:31.911Z,10.31
2023-04-16T03:51:00.613Z,10.40
2023-04-16T03:53:31.506Z,10.37
2023-04-16T03:55:59.493Z,10.42
2023-04-16T03:58:30.130Z,10.42
2023-04-16T04:00:59.388Z,10.44
2023-04-16T04:03:27.689Z,10.44
2023-04-16T04:05:57.939Z,10.57
2023-04-16T04:08:29.956Z,10.53
2023-04-16T04:10:57.894Z,10.49
2023-04-16T04:13:27.311Z,10.52
2023-04-16T04:15:56.129Z,10.47
2023-04-16T04:18:28.158Z,10.46
2023-04-16T04:20:56.115Z,10.47
2023-04-16T04:23:29.899Z,10.48
2023-04-16T04:25:58.010Z,10.49
2023-04-16T04:28:26.392Z,10.51
2023-04-16T04:30:54.405Z,10.51
2023-04-16T04:33:23.978Z,10.51
2023-04-16T04:35:52.966Z,10.60
2023-04-16T04:38:25.288Z,10.58
2023-04-16T04:40:55.555Z,10.57
2023-04-16T04:43:25.344Z,10.57
2023-04-16T04:45:53.211Z,10.57
2023-04-16T04:48:26.731Z,10.58
2023-04-16T04:50:56.121Z,10.60
2023-04-16T04:53:25.071Z,10.61
2023-04-16T04:55:57.150Z,10.69
2023-04-16T04:58:28.318Z,10.70
2023-04-16T05:00:58.838Z,10.66
2023-04-16T05:03:27.149Z,10.68
2023-04-16T05:05:55.103Z,10.64
2023-04-16T05:08:23.041Z,10.75
2023-04-16T05:10:51.194Z,10.66
2023-04-16T05:13:20.285Z,10.64
2023-04-16T05:15:49.460Z,10.67
2023-04-16T05:18:17.412Z,10.68
2023-04-16T05:20:45.522Z,10.66
2023-04-16T05:23:15.615Z,10.66
2023-04-16T05:25:44.131Z,10.62
2023-04-16T05:28:12.321Z,10.89
2023-04-16T05:30:41.262Z,10.72
2023-04-16T05:33:10.706Z,10.68
2023-04-16T05:35:38.786Z,10.65
2023-04-16T05:38:06.775Z,10.70
2023-04-16T05:40:35.033Z,10.70
2023-04-16T05:43:02.947Z,10.74
2023-04-16T05:45:31.366Z,10.70
2023-04-16T05:47:59.404Z,10.75
2023-04-16T05:50:28.869Z,10.76
2023-04-16T05:52:59.353Z,10.70
2023-04-16T05:55:27.504Z,10.71
2023-04-16T05:57:55.579Z,10.69
2023-04-16T06:00:23.852Z,10.75
2023-04-16T06:02:52.069Z,10.83
2023-04-16T06:05:20.405Z,10.87
2023-04-16T06:07:49.730Z,10.76
2023-04-16T06:10:17.816Z,10.78
2023-04-16T06:12:45.713Z,10.72
2023-04-16T06:15:13.727Z,10.79
2023-04-16T06:17:41.703Z,10.65
2023-04-16T06:20:10.939Z,10.62
2023-04-16T06:22:39.026Z,10.57
2023-04-16T06:25:09.534Z,10.57
2023-04-16T06:27:37.605Z,10.57
2023-04-16T06:30:12.244Z,10.64
2023-04-16T06:32:40.552Z,10.67
2023-04-16T06:35:09.506Z,10.65
2023-04-16T06:37:37.577Z,10.63
2023-04-16T06:40:06.455Z,10.53
2023-04-16T06:42:35.837Z,10.65
2023-04-16T06:45:03.750Z,10.81
2023-04-16T06:47:31.934Z,10.61
2023-04-16T06:49:59.869Z,10.54
2023-04-16T06:52:28.161Z,10.60
2023-04-16T06:54:58.665Z,10.57
2023-04-16T06:57:29.049Z,10.57
2023-04-16T06:59:58.405Z,10.57
2023-04-16T07:02:26.653Z,10.64
2023-04-16T07:04:57.196Z,10.66
2023-04-16T07:07:26.587Z,10.66
2023-04-16T07:09:54.475Z,10.61
2023-04-16T07:12:22.935Z,10.67
2023-04-16T07:14:51.193Z,10.66
2023-04-16T07:17:20.894Z,10.68
2023-04-16T07:19:48.939Z,10.75
2023-04-16T07:22:19.075Z,10.81
2023-04-16T07:24:46.920Z,10.75
2023-04-16T07:27:15.154Z,10.74
2023-04-16T07:29:43.065Z,10.76
2023-04-16T07:32:13.325Z,10.82
2023-04-16T07:34:44.437Z,10.79
2023-04-16T07:37:12.626Z,10.82
2023-04-16T07:39:40.537Z,10.93
2023-04-16T07:42:08.849Z,10.89
2023-04-16T07:44:36.694Z,10.94
2023-04-16T07:47:05.927Z,10.95
2023-04-16T07:49:33.948Z,10.98
2023-04-16T07:52:03.386Z,11.06
2023-04-16T07:54:31.457Z,11.11
2023-04-16T07:57:01.993Z,11.14
2023-04-16T07:59:30.259Z,11.20
2023-04-16T08:01:58.401Z,11.25
2023-04-16T08:04:26.744Z,11.27
2023-04-16T08:06:55.205Z,11.28
2023-04-16T08:09:28.707Z,11.34
2023-04-16T08:11:57.263Z,11.38
2023-04-16T08:14:25.745Z,11.42
2023-04-16T08:16:53.866Z,11.44
2023-04-16T08:19:22.212Z,11.42
2023-04-16T08:21:50.183Z,11.41
2023-04-16T08:24:18.642Z,11.42
2023-04-16T08:26:47.928Z,11.52
2023-04-16T08:29:15.803Z,11.48
2023-04-16T08:31:43.820Z,11.53
2023-04-16T08:34:12.425Z,11.58
2023-04-16T08:36:41.472Z,11.70
2023-04-16T08:39:10.062Z,11.70
2023-04-16T08:41:42.501Z,11.76
2023-04-16T08:44:19.306Z,11.84
2023-04-16T08:46:48.618Z,11.82
2023-04-16T08:49:19.093Z,11.87
2023-04-16T08:51:53.185Z,11.98
2023-04-16T08:54:32.772Z,12.09
2023-04-16T08:57:01.737Z,12.09
2023-04-16T08:59:33.710Z,12.21
2023-04-16T09:02:04.394Z,12.28
2023-04-16T09:04:33.557Z,12.39
2023-04-16T09:07:05.681Z,12.40
2023-04-16T09:09:34.719Z,12.47
2023-04-16T09:12:02.814Z,12.50
2023-04-16T09:14:31.744Z,12.53
2023-04-16T09:17:02.392Z,12.57
2023-04-16T09:19:30.880Z,12.61
2023-04-16T09:21:59.048Z,12.66
2023-04-16T09:24:27.195Z,12.67
2023-04-16T09:26:56.420Z,12.62
2023-04-16T09:29:36.449Z,12.62
2023-04-16T09:32:07.437Z,12.69
2023-04-16T09:34:36.790Z,12.72
2023-04-16T09:37:17.661Z,12.74
2023-04-16T09:39:46.389Z,12.75
2023-04-16T09:42:15.576Z,12.78
2023-04-16T09:44:43.535Z,12.87
2023-04-16T09:47:14.954Z,13.00
2023-04-16T09:49:43.341Z,13.08
2023-04-16T09:52:18.265Z,13.10
2023-04-16T09:54:51.591Z,13.09
2023-04-16T09:57:21.747Z,13.12
2023-04-16T09:59:55.000Z,13.15
2023-04-16T10:02:27.936Z,13.04
2023-04-16T10:04:57.438Z,13.02
2023-04-16T10:07:30.498Z,13.02
2023-04-16T10:09:59.800Z,13.03
2023-04-16T10:12:29.809Z,13.03
2023-04-16T10:14:57.942Z,13.03
2023-04-16T10:17:30.075Z,12.86
2023-04-16T10:19:59.425Z,12.75
2023-04-16T10:22:27.497Z,12.71
2023-04-16T10:24:56.761Z,12.72
2023-04-16T10:27:25.714Z,12.71
2023-04-16T10:29:53.674Z,12.76
2023-04-16T10:32:22.288Z,12.73
2023-04-16T10:34:54.378Z,12.70
2023-04-16T10:37:31.253Z,12.72
2023-04-16T10:39:59.456Z,12.65
2023-04-16T10:42:27.714Z,12.64
2023-04-16T10:44:55.702Z,12.64
2023-04-16T10:47:26.256Z,12.66
2023-04-16T10:49:55.857Z,12.71
2023-04-16T10:52:25.056Z,12.68
2023-04-16T10:54:55.651Z,12.68
2023-04-16T10:57:30.548Z,12.63
2023-04-16T10:59:59.532Z,12.67
2023-04-16T11:02:30.268Z,12.70
2023-04-16T11:05:00.170Z,12.76
2023-04-16T11:07:35.050Z,12.64
2023-04-16T11:10:06.222Z,12.64
2023-04-16T11:12:38.883Z,12.65
2023-04-16T11:15:08.430Z,12.61
2023-04-16T11:17:39.960Z,12.60
2023-04-16T11:20:19.391Z,12.52
2023-04-16T11:22:48.984Z,12.56
2023-04-16T11:25:22.997Z,12.60
2023-04-16T11:27:51.911Z,12.61
2023-04-16T11:30:28.864Z,12.59
2023-04-16T11:32:57.476Z,12.67
2023-04-16T11:35:27.325Z,12.68
2023-04-16T11:37:58.229Z,12.72
2023-04-16T11:40:30.587Z,12.67
2023-04-16T11:43:03.539Z,12.64
2023-04-16T11:45:31.565Z,12.59
2023-04-16T11:47:59.467Z,12.53
2023-04-16T11:50:29.821Z,12.54
2023-04-16T11:53:04.855Z,12.51
2023-04-16T11:55:32.936Z,12.45
2023-04-16T11:58:12.674Z,12.53
2023-04-16T12:00:43.995Z,12.49
2023-04-16T12:03:12.172Z,12.57
2023-04-16T12:05:41.841Z,12.56
2023-04-16T12:08:11.231Z,12.49
2023-04-16T12:10:54.868Z,12.49
2023-04-16T12:13:23.914Z,12.50
2023-04-16T12:15:53.473Z,12.51
2023-04-16T12:18:23.684Z,12.53
2023-04-16T12:20:52.908Z,12.53
2023-04-16T12:23:25.560Z,12.53
2023-04-16T12:25:54.054Z,12.54
2023-04-16T12:28:30.008Z,12.60
2023-04-16T12:31:01.127Z,12.60
2023-04-16T12:33:32.084Z,12.63
2023-04-16T12:36:03.589Z,12.65
2023-04-16T12:38:31.815Z,12.71
2023-04-16T12:41:02.406Z,12.76
2023-04-16T12:43:30.679Z,12.82
2023-04-16T12:45:58.561Z,12.86
2023-04-16T12:48:26.495Z,12.93
2023-04-16T12:50:55.243Z,13.04
2023-04-16T12:53:25.679Z,13.14
2023-04-16T12:55:53.818Z,13.22
2023-04-16T12:58:21.724Z,13.31
2023-04-16T13:00:49.576Z,13.32
2023-04-16T13:03:17.365Z,13.32
2023-04-16T13:05:46.027Z,13.34
2023-04-16T13:08:14.207Z,13.40
2023-04-16T13:10:45.834Z,13.44
2023-04-16T13:13:14.105Z,13.46
2023-04-16T13:15:45.175Z,13.46
2023-04-16T13:18:13.172Z,13.38
2023-04-16T13:20:41.007Z,13.39
2023-04-16T13:23:10.085Z,13.36
2023-04-16T13:25:38.004Z,13.34
2023-04-16T13:28:07.565Z,13.38
2023-04-16T13:30:35.620Z,13.37
2023-04-16T13:33:04.065Z,13.43
2023-04-16T13:35:32.409Z,13.44
2023-04-16T13:38:00.694Z,13.52
2023-04-16T13:40:28.840Z,13.56
2023-04-16T13:42:56.768Z,13.52
2023-04-16T13:45:29.191Z,13.49
2023-04-16T13:47:57.620Z,13.46
2023-04-16T13:50:25.808Z,13.42
2023-04-16T13:52:53.784Z,13.33
2023-04-16T13:55:21.692Z,13.30
2023-04-16T13:57:52.425Z,13.23
2023-04-16T14:00:22.077Z,13.13
2023-04-16T14:02:53.470Z,13.10
2023-04-16T14:05:24.064Z,13.08
2023-04-16T14:07:55.704Z,13.06
2023-04-16T14:10:23.634Z,13.02
2023-04-16T14:12:51.903Z,13.00
2023-04-16T14:15:21.317Z,12.97
2023-04-16T14:17:49.176Z,12.98
2023-04-16T14:20:18.975Z,12.98
2023-04-16T14:22:47.154Z,12.97
2023-04-16T14:25:17.510Z,13.00
2023-04-16T14:27:45.646Z,13.01
2023-04-16T14:30:14.198Z,13.00
2023-04-16T14:32:42.522Z,12.98
2023-04-16T14:35:10.792Z,12.94
2023-04-16T14:37:43.429Z,12.94
2023-04-16T14:40:12.287Z,12.93
2023-04-16T14:42:40.947Z,12.94
2023-04-16T14:45:10.029Z,12.95
2023-04-16T14:47:45.588Z,12.92
2023-04-16T14:50:15.604Z,12.89
2023-04-16T14:52:45.076Z,12.87
2023-04-16T14:55:13.231Z,12.85
2023-04-16T14:57:41.585Z,12.87
2023-04-16T15:00:11.951Z,12.86
2023-04-16T15:02:41.364Z,12.87
2023-04-16T15:05:11.240Z,12.88
2023-04-16T15:07:40.612Z,12.90
2023-04-16T15:10:12.522Z,12.90
2023-04-16T15:12:40.455Z,12.92
2023-04-16T15:15:09.593Z,12.93
2023-04-16T15:17:37.825Z,12.94
2023-04-16T15:20:13.587Z,12.94
2023-04-16T15:22:41.561Z,12.97
2023-04-16T15:25:11.458Z,13.00
2023-04-16T15:27:42.028Z,13.01
2023-04-16T15:30:12.591Z,13.02
2023-04-16T15:32:45.264Z,13.03
2023-04-16T15:35:14.363Z,13.03
2023-04-16T15:37:42.582Z,13.00
2023-04-16T15:40:13.335Z,13.00
2023-04-16T15:42:41.694Z,12.99
2023-04-16T15:45:10.024Z,13.00
2023-04-16T15:47:40.882Z,12.97
2023-04-16T15:50:10.592Z,12.97
2023-04-16T15:52:39.875Z,12.97
2023-04-16T15:55:08.297Z,12.96
2023-04-16T15:57:38.635Z,12.93
2023-04-16T16:00:13.485Z,12.98
2023-04-16T16:02:44.751Z,12.96
2023-04-16T16:05:15.425Z,12.98
2023-04-16T16:07:44.533Z,12.95
2023-04-16T16:10:14.122Z,12.94
2023-04-16T16:12:48.249Z,12.95
2023-04-16T16:15:16.256Z,12.93
2023-04-16T16:17:44.342Z,12.95
2023-04-16T16:20:12.799Z,12.92
2023-04-16T16:22:43.063Z,12.88
2023-04-16T16:25:11.378Z,12.84
2023-04-16T16:27:40.601Z,12.84
2023-04-16T16:30:11.631Z,12.83
2023-04-16T16:32:40.946Z,12.83
2023-04-16T16:35:13.840Z,12.84
2023-04-16T16:37:41.764Z,12.83
2023-04-16T16:40:11.019Z,12.80
2023-04-16T16:42:39.026Z,12.79
2023-04-16T16:45:08.159Z,12.76
2023-04-16T16:47:37.512Z,12.75
2023-04-16T16:50:11.320Z,12.74
2023-04-16T16:52:42.571Z,12.69
2023-04-16T16:55:11.074Z,12.73
2023-04-16T16:57:39.679Z,12.67
2023-04-16T17:00:14.240Z,12.62
2023-04-16T17:02:44.406Z,12.60
2023-04-16T17:05:12.930Z,12.60
2023-04-16T17:07:41.284Z,12.52
2023-04-16T17:10:11.229Z,12.50
2023-04-16T17:12:41.386Z,12.46
2023-04-16T17:15:10.382Z,12.40
2023-04-16T17:17:38.437Z,12.42
2023-04-16T17:20:10.804Z,12.40
2023-04-16T17:22:41.421Z,12.38
2023-04-16T17:25:10.085Z,12.36
2023-04-16T17:27:37.957Z,12.33
2023-04-16T17:30:08.169Z,12.31
2023-04-16T17:32:36.114Z,12.32
2023-04-16T17:35:06.874Z,12.29
2023-04-16T17:37:36.368Z,12.25
2023-04-16T17:40:07.481Z,12.21
2023-04-16T17:42:38.117Z,12.20
2023-04-16T17:45:07.034Z,12.18
2023-04-16T17:47:36.891Z,12.14
2023-04-16T17:50:05.978Z,12.15
2023-04-16T17:52:34.573Z,12.10
2023-04-16T17:55:08.582Z,12.08
2023-04-16T17:57:39.938Z,12.05
2023-04-16T18:00:11.161Z,11.98
2023-04-16T18:02:43.250Z,11.96
2023-04-16T18:05:11.397Z,11.94
2023-04-16T18:07:40.530Z,11.93
2023-04-16T18:10:11.284Z,11.92
2023-04-16T18:12:41.859Z,11.89
2023-04-16T18:15:11.253Z,11.88
2023-04-16T18:17:39.192Z,11.89
2023-04-16T18:20:09.183Z,11.85
2023-04-16T18:22:37.171Z,11.84
2023-04-16T18:25:06.580Z,11.91
2023-04-16T18:27:36.095Z,11.87
2023-04-16T18:30:05.171Z,11.91
2023-04-16T18:32:33.800Z,11.85
2023-04-16T18:35:01.901Z,11.79
2023-04-16T18:37:29.809Z,11.70
2023-04-16T18:39:58.251Z,11.71
2023-04-16T18:42:29.537Z,11.68
2023-04-16T18:44:59.398Z,11.66
2023-04-16T18:47:28.275Z,11.64
2023-04-16T18:49:56.644Z,11.56
2023-04-16T18:52:26.248Z,11.54
2023-04-16T18:54:56.085Z,11.52
2023-04-16T18:57:24.017Z,11.52
2023-04-16T18:59:52.457Z,11.46
2023-04-16T19:02:23.225Z,11.44
2023-04-16T19:04:51.259Z,11.40
2023-04-16T19:07:19.220Z,11.43
2023-04-16T19:09:47.918Z,11.41
2023-04-16T19:12:18.877Z,11.41
2023-04-16T19:14:47.198Z,11.42
2023-04-16T19:17:15.316Z,11.42
2023-04-16T19:19:44.653Z,11.44
2023-04-16T19:22:12.903Z,11.42
2023-04-16T19:24:40.883Z,11.38
2023-04-16T19:27:09.562Z,11.35
2023-04-16T19:29:37.789Z,11.35
2023-04-16T19:32:09.889Z,11.35
2023-04-16T19:34:38.950Z,11.32
2023-04-16T19:37:08.282Z,11.33
2023-04-16T19:39:36.749Z,11.32
2023-04-16T19:42:04.891Z,11.31
2023-04-16T19:44:36.447Z,11.31
2023-04-16T19:47:06.094Z,11.29
2023-04-16T19:49:34.578Z,11.30
2023-04-16T19:52:04.123Z,11.30
2023-04-16T19:54:34.889Z,11.29
2023-04-16T19:57:04.588Z,11.26
2023-04-16T19:59:33.086Z,11.28
2023-04-16T20:02:01.673Z,11.26
2023-04-16T20:04:30.212Z,11.27
2023-04-16T20:06:58.375Z,11.25
2023-04-16T20:09:26.227Z,11.23
2023-04-16T20:11:56.467Z,11.25
2023-04-16T20:14:24.866Z,11.24
2023-04-16T20:16:52.912Z,11.22
2023-04-16T20:19:22.509Z,11.20
2023-04-16T20:21:51.137Z,11.22
2023-04-16T20:24:19.026Z,11.21
2023-04-16T20:26:46.962Z,11.23
2023-04-16T20:29:16.492Z,11.20
2023-04-16T20:31:46.979Z,11.22
2023-04-16T20:34:14.841Z,11.21
2023-04-16T20:36:44.187Z,11.24
2023-04-16T20:39:12.893Z,11.27
2023-04-16T20:41:44.165Z,11.29
2023-04-16T20:44:18.055Z,11.27
2023-04-16T20:46:49.603Z,11.27
2023-04-16T20:49:19.822Z,11.22
2023-04-16T20:51:48.304Z,11.21
2023-04-16T20:54:16.654Z,11.16
2023-04-16T20:56:45.045Z,11.16
2023-04-16T20:59:13.875Z,11.12
2023-04-16T21:01:42.241Z,11.12
2023-04-16T21:04:12.445Z,11.11
2023-04-16T21:06:42.914Z,11.12
2023-04-16T21:09:11.709Z,11.12
2023-04-16T21:11:40.966Z,11.11
2023-04-16T21:14:09.173Z,11.05
2023-04-16T21:16:37.230Z,11.02
2023-04-16T21:19:05.845Z,10.97
2023-04-16T21:21:35.421Z,10.98
2023-04-16T21:24:03.443Z,10.98
2023-04-16T21:26:31.571Z,11.00
2023-04-16T21:28:59.783Z,10.96
2023-04-16T21:31:28.001Z,10.94
2023-04-16T21:33:56.119Z,10.95
2023-04-16T21:36:26.478Z,10.95
2023-04-16T21:38:57.733Z,10.91
2023-04-16T21:41:25.616Z,10.92
2023-04-16T21:43:53.850Z,10.91
2023-04-16T21:46:22.013Z,10.92
2023-04-16T21:48:50.925Z,10.95
2023-04-16T21:51:23.060Z,10.93
2023-04-16T21:53:51.712Z,10.93
2023-04-16T21:56:21.535Z,10.91
2023-04-16T21:58:52.653Z,10.88
2023-04-16T22:01:20.721Z,10.89
2023-04-16T22:03:55.323Z,10.91
2023-04-16T22:06:24.243Z,10.88
2023-04-16T22:08:53.615Z,10.85
2023-04-16T22:11:23.176Z,10.82
2023-04-16T22:13:51.865Z,10.85
2023-04-16T22:16:20.185Z,10.83
2023-04-16T22:18:48.588Z,10.81
2023-04-16T22:21:17.492Z,10.83
2023-04-16T22:23:48.372Z,10.81
2023-04-16T22:26:16.640Z,10.82
2023-04-16T22:28:47.266Z,10.77
2023-04-16T22:31:15.975Z,10.75
2023-04-16T22:33:47.083Z,10.72
2023-04-16T22:36:17.633Z,10.72
2023-04-16T22:38:47.515Z,10.73
2023-04-16T22:41:15.640Z,10.75
2023-04-16T22:43:44.092Z,10.73
2023-04-16T22:46:13.523Z,10.74
2023-04-16T22:48:41.519Z,10.70
2023-04-16T22:51:10.067Z,10.69
2023-04-16T22:53:39.231Z,10.68
2023-04-16T22:56:08.130Z,10.67
2023-04-16T22:58:35.984Z,10.69
2023-04-16T23:01:03.840Z,10.68
2023-04-16T23:03:33.337Z,10.66
2023-04-16T23:06:04.370Z,10.66
2023-04-16T23:08:32.353Z,10.65
2023-04-16T23:11:00.237Z,10.64
2023-04-16T23:13:28.518Z,10.64
2023-04-16T23:15:58.949Z,10.64
2023-04-16T23:18:26.782Z,10.65
2023-04-16T23:20:56.762Z,10.66
2023-04-16T23:23:27.952Z,10.64
2023-04-16T23:25:55.757Z,10.66
2023-04-16T23:28:24.557Z,10.65
2023-04-16T23:30:53.194Z,10.66
2023-04-16T23:33:21.721Z,10.66
2023-04-16T23:35:53.055Z,10.65
2023-04-16T23:38:22.681Z,10.68
2023-04-16T23:40:54.183Z,10.71
2023-04-16T23:43:22.213Z,10.68
2023-04-16T23:45:51.232Z,10.71
2023-04-16T23:48:19.441Z,10.70
2023-04-16T23:50:49.664Z,10.69
2023-04-16T23:53:19.930Z,10.69
2023-04-16T23:55:52.657Z,10.74
2023-04-16T23:58:20.910Z,10.72
